Airfield :
LOGIN :

Register | Disclaimer

   EN    FR    IT 

 










Legend :    VFR   Marginal VFR   IFR   Intensive IFR   Very Intensive IFR
Visi :
Ceiling :
>= 8 km
>= 3000ft
5 to 8 km
1000 to 3000 ft
1500m to 5 km
500 to 1000 ft
800 to 1500m
200 to 500 ft
< 800m
< 200 ft
Symbols :   Thunderstorms  Fog  Heavy snow  Heavy precipitations  Wind > 20 kt
SIGMETs :     Misc.  Thunderstorms  Icing  Turbulence  Mountain Waves  Volcanic Ashes







- Airport Elevation : 502 ft
- IATA code : ORK


EICK - Cork

CURRENT METAR :
  • 160530Z 24005KT 9999 FEW002 SCT006 BKN009 15/15 Q1022 NOSIG

EXPIRED METARs :
  • 160500Z 23006KT 9999 FEW002 BKN007 15/15 Q1022 NOSIG
  • 160430Z 23006KT 9999 FEW002 BKN008 15/15 Q1022 NOSIG
  • 160400Z 24006KT 9999 FEW002 BKN010 15/15 Q1023 NOSIG
  • 160330Z 22007KT 9999 FEW003 BKN011 15/15 Q1023 NOSIG
  • 160300Z 23006KT 9999 FEW003 BKN012 15/15 Q1023 NOSIG

TAF TAF EICK
Valid from the 16 at 06:00 until the 17 at 06:00 UTC


160500Z 1606/1706 25008KT 9999 FEW003 BKN007
BECMG 1606/1608 28008KT
PROB40
TEMPO 1606/1609 3000 -DZ BR BKN003
PROB30
TEMPO 1606/1609 0500 FG BKN002
BECMG 1609/1612 34008KT FEW007 BKN020
BECMG 1612/1614 02007KT
BECMG 1616/1618 09006KT
BECMG 1620/1623 04006KT
BECMG 1623/1702 01006KT
TEMPO 1700/1706 3000 BR SCT003
PROB30
TEMPO 1703/1706 0500 FG BKN002
No reported NOTAMs for that airfield.



MET'MAP, your aeronautical weather chart ! - Copyright ORBIFLY December 2007 - Disclaimer

ORBIFLY MET'MAP TEAM :

Programming & Development : Alexandra Zaïnal
Concept & Development : Baudouin d'Aumeries
Co-Development & Prog : Marc-Olivier Méhu
Technical & hardware support : Manuel Goepfert

Contact : metmap@orbifly.com




SOURCES & CREDITS :

   NOAA